Time;durP1;ratioP1;P1;durP2;ratioP2;P2;SDS_P1;SDS_P2;PMS_P1;PMS_P2;Temp;Humidity;BMP_temperature;BMP_pressure;BME280_temperature;BME280_humidity;BME280_pressure;Samples;Min_cycle;Max_cycle;Signal;HPM_P1;HPM_P2
2024/04/19 00:00:58;;;;;;;12.93;11.55;;;;;;;4.00;89.21;100707.88;2671857;26;20087;-74
2024/04/19 00:02:12;;;;;;;13.20;10.05;;;;;;;4.02;88.79;100705.31;2672583;26;20084;-73
2024/04/19 00:03:25;;;;;;;13.20;9.65;;;;;;;4.02;89.19;100707.91;2671316;27;20014;-73
2024/04/19 00:04:38;;;;;;;10.68;9.07;;;;;;;4.03;88.77;100704.50;2676655;26;20445;-74
2024/04/19 00:05:51;;;;;;;14.43;11.30;;;;;;;4.03;88.48;100705.38;2671577;27;20539;-74
2024/04/19 00:07:05;;;;;;;11.63;10.45;;;;;;;4.05;88.74;100700.22;2659300;27;20006;-74
2024/04/19 00:08:18;;;;;;;17.27;11.40;;;;;;;4.06;88.98;100695.09;2671250;26;20009;-74
2024/04/19 00:09:31;;;;;;;13.15;10.38;;;;;;;4.07;88.53;100699.38;2671049;27;20366;-74
2024/04/19 00:10:45;;;;;;;13.20;10.93;;;;;;;4.07;88.51;100699.38;2672061;27;20016;-74
2024/04/19 00:11:58;;;;;;;12.93;10.13;;;;;;;4.09;88.84;100702.00;2672054;26;20010;-74
2024/04/19 00:13:11;;;;;;;18.73;10.13;;;;;;;4.10;88.68;100702.03;2672212;26;20013;-74
2024/04/19 00:14:24;;;;;;;13.55;11.30;;;;;;;4.12;88.48;100702.94;2672049;26;20009;-74
2024/04/19 00:15:41;;;;;;;13.63;10.38;;;;;;;4.13;88.62;100685.72;2672353;26;20033;-74
2024/04/19 00:16:55;;;;;;;10.93;9.48;;;;;;;4.17;89.06;100690.09;2670860;26;20034;-74
2024/04/19 00:18:08;;;;;;;12.40;9.80;;;;;;;4.21;88.75;100688.44;2660061;27;20001;-74
2024/04/19 00:19:22;;;;;;;10.70;9.45;;;;;;;4.22;88.78;100690.19;2676696;26;20005;-74
2024/04/19 00:20:35;;;;;;;12.00;10.80;;;;;;;4.23;88.55;100692.78;2659777;26;20011;-73
2024/04/19 00:21:48;;;;;;;12.55;10.82;;;;;;;4.25;88.63;100690.25;2677626;26;20083;-74
2024/04/19 00:23:01;;;;;;;18.10;13.30;;;;;;;4.26;89.00;100685.13;2671586;27;20006;-75
2024/04/19 00:24:15;;;;;;;15.25;9.68;;;;;;;4.27;88.41;100680.81;2671410;26;20001;-73
2024/04/19 00:25:28;;;;;;;10.93;9.77;;;;;;;4.29;88.55;100687.75;2672745;26;20005;-74
2024/04/19 00:26:41;;;;;;;13.85;12.20;;;;;;;4.29;88.36;100685.16;2671224;26;20010;-74
2024/04/19 00:27:54;;;;;;;14.68;10.90;;;;;;;4.30;88.25;100683.44;2671856;26;20125;-74
2024/04/19 00:29:07;;;;;;;14.63;11.50;;;;;;;4.30;88.54;100686.91;2670560;26;20001;-74
2024/04/19 00:30:21;;;;;;;13.57;12.10;;;;;;;4.31;88.22;100683.50;2642753;27;20355;-74
2024/04/19 00:31:34;;;;;;;12.98;10.57;;;;;;;4.30;88.35;100689.47;2660360;27;20572;-74
2024/04/19 00:32:47;;;;;;;12.48;10.20;;;;;;;4.30;88.59;100686.91;2670811;26;20052;-74
2024/04/19 00:34:00;;;;;;;16.42;11.65;;;;;;;4.31;88.26;100682.59;2671575;27;20017;-74
2024/04/19 00:35:14;;;;;;;11.07;9.80;;;;;;;4.32;88.00;100690.38;2672084;26;20017;-74
2024/04/19 00:36:27;;;;;;;12.10;9.93;;;;;;;4.31;88.21;100686.06;2670231;26;20047;-74
2024/04/19 00:37:40;;;;;;;13.82;11.13;;;;;;;4.31;88.45;100680.91;2659876;27;20166;-74
2024/04/19 00:38:54;;;;;;;12.25;10.60;;;;;;;4.30;88.57;100681.72;2659653;27;20374;-74
2024/04/19 00:40:08;;;;;;;12.00;10.73;;;;;;;4.30;88.30;100691.19;2660027;26;20017;-74
2024/04/19 00:41:21;;;;;;;12.27;10.00;;;;;;;4.30;88.11;100688.59;2677573;26;20016;-74
2024/04/19 00:42:34;;;;;;;13.43;10.50;;;;;;;4.29;88.37;100679.13;2682621;26;20002;-74
2024/04/19 00:43:48;;;;;;;11.50;9.68;;;;;;;4.29;88.03;100684.31;2671010;27;20020;-74
2024/04/19 00:45:01;;;;;;;13.07;9.32;;;;;;;4.29;88.13;100685.16;2670992;26;20012;-74
2024/04/19 00:46:14;;;;;;;15.75;12.32;;;;;;;4.31;88.45;100682.59;2670418;27;20002;-74
2024/04/19 00:47:28;;;;;;;12.80;10.15;;;;;;;4.31;88.24;100687.75;2659661;27;20486;-74
2024/04/19 00:48:41;;;;;;;13.45;11.02;;;;;;;4.30;87.84;100680.88;2676413;26;20478;-74
2024/04/19 00:49:55;;;;;;;13.77;11.80;;;;;;;4.30;88.12;100684.31;2670988;27;20569;-74
2024/04/19 00:51:08;;;;;;;13.90;9.43;;;;;;;4.31;87.82;100682.59;2659626;27;20552;-74
2024/04/19 00:52:21;;;;;;;13.05;10.52;;;;;;;4.32;87.76;100685.22;2665095;26;19998;-74
2024/04/19 00:53:35;;;;;;;11.68;10.48;;;;;;;4.34;88.52;100685.25;2671441;27;20017;-74
2024/04/19 00:54:48;;;;;;;12.82;10.30;;;;;;;4.35;87.94;100677.50;2671224;27;20009;-74
2024/04/19 00:56:02;;;;;;;14.82;12.82;;;;;;;4.35;88.03;100674.94;2659412;26;20100;-73
2024/04/19 00:57:16;;;;;;;15.15;12.27;;;;;;;4.35;88.13;100679.22;2671341;27;20012;-74
2024/04/19 00:58:29;;;;;;;11.52;10.32;;;;;;;4.35;88.36;100677.50;2670314;27;20009;-75
2024/04/19 00:59:43;;;;;;;12.15;10.85;;;;;;;4.36;88.21;100674.09;2671312;27;20020;-74
2024/04/19 01:01:03;;;;;;;15.35;10.60;;;;;;;4.37;88.20;100683.56;2670475;26;20001;-73
2024/04/19 01:02:17;;;;;;;13.48;11.43;;;;;;;4.35;87.87;100674.94;2654001;27;20014;-74
2024/04/19 01:03:31;;;;;;;12.32;10.10;;;;;;;4.35;88.28;100668.91;2657870;27;20009;-74
2024/04/19 01:04:44;;;;;;;15.77;10.80;;;;;;;4.35;87.73;100674.06;2658839;26;20009;-74
2024/04/19 01:05:57;;;;;;;12.73;11.45;;;;;;;4.33;87.86;100666.28;2676978;26;20015;-74
2024/04/19 01:07:10;;;;;;;15.95;10.57;;;;;;;4.34;88.28;100665.44;2682601;26;20045;-74
2024/04/19 01:08:24;;;;;;;12.52;10.95;;;;;;;4.34;87.81;100662.88;2670436;26;20045;-74
2024/04/19 01:09:37;;;;;;;14.13;11.48;;;;;;;4.35;88.20;100659.41;2656374;27;20042;-74
2024/04/19 01:10:51;;;;;;;14.98;10.70;;;;;;;4.36;87.78;100660.28;2671658;27;20478;-74
2024/04/19 01:12:04;;;;;;;13.90;11.00;;;;;;;4.34;88.09;100662.88;2671354;26;20482;-73
2024/04/19 01:13:18;;;;;;;11.77;9.77;;;;;;;4.33;87.83;100661.09;2671865;26;20079;-73
2024/04/19 01:14:32;;;;;;;12.70;9.45;;;;;;;4.31;87.69;100660.22;2670442;27;20016;-74
2024/04/19 01:15:45;;;;;;;15.52;11.20;;;;;;;4.29;87.62;100651.59;2671297;27;20462;-74
2024/04/19 01:16:58;;;;;;;11.52;9.52;;;;;;;4.29;88.08;100655.88;2670500;26;20014;-74
2024/04/19 01:18:11;;;;;;;12.85;9.45;;;;;;;4.28;87.45;100651.53;2659540;27;20057;-74
2024/04/19 01:19:25;;;;;;;12.35;11.13;;;;;;;4.26;87.35;100648.94;2660196;26;20385;-74
2024/04/19 01:20:38;;;;;;;17.35;11.48;;;;;;;4.27;87.61;100650.69;2659876;27;20428;-74
2024/04/19 01:21:51;;;;;;;14.15;10.85;;;;;;;4.26;87.82;100648.94;2676936;26;20013;-74
2024/04/19 01:23:05;;;;;;;12.35;11.15;;;;;;;4.25;87.76;100644.59;2670205;27;20005;-74
2024/04/19 01:24:27;;;;;;;13.15;9.38;;;;;;;4.25;87.59;100649.78;2658658;26;20013;-73
2024/04/19 01:25:41;;;;;;;13.05;10.98;;;;;;;4.25;88.02;100638.56;2665540;26;20006;-74
2024/04/19 01:26:54;;;;;;;11.30;10.07;;;;;;;4.25;87.64;100636.84;2670911;27;20332;-74
2024/04/19 01:28:09;;;;;;;12.30;9.63;;;;;;;4.24;87.36;100636.84;2670045;26;20016;-74
2024/04/19 01:29:22;;;;;;;14.43;10.73;;;;;;;4.23;87.43;100637.69;2671150;26;20042;-74
2024/04/19 01:30:40;;;;;;;10.63;9.52;;;;;;;4.22;87.65;100629.06;2670581;27;20071;-74
2024/04/19 01:31:54;;;;;;;11.02;9.88;;;;;;;4.23;87.34;100627.34;2677883;26;20434;-74
2024/04/19 01:33:07;;;;;;;12.52;10.55;;;;;;;4.22;87.79;100626.47;2681939;26;20047;-74
2024/04/19 01:34:20;;;;;;;12.18;10.88;;;;;;;4.23;87.95;100632.50;2671746;26;20005;-74
2024/04/19 01:35:33;;;;;;;12.45;9.95;;;;;;;4.24;88.05;100635.13;2671590;26;19998;-74
2024/04/19 01:36:46;;;;;;;12.00;10.70;;;;;;;4.25;87.45;100636.84;2671414;26;20005;-74
2024/04/19 01:38:00;;;;;;;12.75;10.85;;;;;;;4.26;87.41;100638.63;2671804;26;20001;-74
2024/04/19 01:39:13;;;;;;;19.77;10.10;;;;;;;4.27;87.68;100631.72;2671538;26;20014;-74
2024/04/19 01:40:26;;;;;;;11.77;10.65;;;;;;;4.27;87.89;100632.59;2652441;27;20412;-74
2024/04/19 01:41:39;;;;;;;15.00;8.35;;;;;;;4.27;87.31;100642.94;2647825;27;20454;-74
2024/04/19 01:42:53;;;;;;;19.63;10.27;;;;;;;4.29;87.54;100642.97;2671138;27;20009;-74
2024/04/19 01:44:06;;;;;;;12.20;10.52;;;;;;;4.29;87.94;100632.63;2669990;26;20005;-74
2024/04/19 01:45:19;;;;;;;10.80;9.70;;;;;;;4.31;88.03;100642.16;2671173;27;20079;-74
2024/04/19 01:46:33;;;;;;;11.82;8.45;;;;;;;4.31;87.58;100634.41;2687941;26;20000;-74
2024/04/19 01:47:46;;;;;;;12.88;9.15;;;;;;;4.33;87.77;100630.09;2681978;26;20406;-74
2024/04/19 01:48:59;;;;;;;11.00;8.73;;;;;;;4.34;87.71;100621.53;2670027;26;20393;-74
2024/04/19 01:50:13;;;;;;;11.18;10.07;;;;;;;4.35;87.89;100625.84;2671025;27;20018;-74
2024/04/19 01:51:26;;;;;;;11.70;9.32;;;;;;;4.35;87.82;100625.84;2670694;27;20005;-74
2024/04/19 01:52:39;;;;;;;11.82;10.38;;;;;;;4.34;87.82;100624.09;2658897;26;20001;-74
2024/04/19 01:53:52;;;;;;;11.38;10.18;;;;;;;4.36;87.81;100626.69;2676479;26;20000;-74
2024/04/19 01:55:06;;;;;;;11.93;8.93;;;;;;;4.35;87.60;100617.22;2670804;27;20045;-74
2024/04/19 01:56:19;;;;;;;14.05;9.68;;;;;;;4.36;87.47;100624.09;2658759;26;19998;-74
2024/04/19 01:57:32;;;;;;;12.10;9.48;;;;;;;4.35;87.22;100620.66;2670608;27;20358;-74
2024/04/19 01:58:45;;;;;;;10.32;9.18;;;;;;;4.36;87.33;100618.94;2669363;27;20001;-74
2024/04/19 01:59:59;;;;;;;10.93;9.73;;;;;;;4.36;87.50;100622.44;2658783;26;20013;-74
2024/04/19 02:01:12;;;;;;;13.45;8.82;;;;;;;4.35;87.12;100615.50;2671076;27;20257;-74
2024/04/19 02:02:26;;;;;;;10.27;8.80;;;;;;;4.36;87.11;100617.25;2670423;27;20126;-74
2024/04/19 02:03:40;;;;;;;12.15;9.65;;;;;;;4.37;87.41;100621.56;2659411;27;20095;-74
2024/04/19 02:04:53;;;;;;;10.55;9.40;;;;;;;4.38;87.56;100612.09;2676459;26;20005;-74
2024/04/19 02:06:11;;;;;;;13.55;9.15;;;;;;;4.39;87.54;100613.84;2670492;27;20091;-74
2024/04/19 02:07:25;;;;;;;12.15;10.20;;;;;;;4.38;87.05;100618.13;2660480;27;20470;-74
2024/04/19 02:08:38;;;;;;;12.85;11.32;;;;;;;4.40;87.55;100610.41;2641054;27;20007;-74
2024/04/19 02:09:52;;;;;;;12.88;11.52;;;;;;;4.41;87.46;100611.28;2659711;27;20451;-74
2024/04/19 02:11:06;;;;;;;11.70;10.50;;;;;;;4.41;87.19;100616.44;2670286;26;20038;-74
2024/04/19 02:12:19;;;;;;;12.25;9.85;;;;;;;4.42;86.98;100613.91;2659047;26;20379;-74
2024/04/19 02:13:33;;;;;;;11.13;8.20;;;;;;;4.44;87.43;100613.91;2660974;27;20015;-74
2024/04/19 02:14:47;;;;;;;10.13;9.07;;;;;;;4.45;86.87;100602.75;2661050;27;20002;-74
2024/04/19 02:16:00;;;;;;;11.80;8.82;;;;;;;4.46;87.17;100607.03;2660545;26;20017;-74
2024/04/19 02:17:13;;;;;;;17.73;10.75;;;;;;;4.47;86.91;100603.63;2677411;26;20103;-74
2024/04/19 02:18:27;;;;;;;9.57;8.48;;;;;;;4.47;86.92;100606.22;2671340;27;20060;-73
2024/04/19 02:19:40;;;;;;;12.65;11.05;;;;;;;4.48;86.90;100600.19;2677711;26;20017;-74
2024/04/19 02:20:53;;;;;;;11.15;9.48;;;;;;;4.47;86.93;100595.88;2683486;26;20060;-74
2024/04/19 02:22:06;;;;;;;10.32;9.20;;;;;;;4.49;86.86;100599.34;2672276;27;20057;-74
2024/04/19 02:23:43;;;;;;;11.68;9.48;;;;;;;4.52;87.42;100594.25;2672351;27;20013;-74
2024/04/19 02:24:56;;;;;;;13.93;10.65;;;;;;;4.50;86.76;100594.19;2670337;26;20009;-74
2024/04/19 02:26:10;;;;;;;11.95;10.15;;;;;;;4.50;86.67;100601.97;2672263;27;20045;-74
2024/04/19 02:31:59;;;;;;;10.73;9.13;;;;;;;4.54;86.87;100579.59;2671791;26;20012;-74
2024/04/19 02:33:12;;;;;;;11.52;9.23;;;;;;;4.56;86.91;100585.66;2672657;27;20020;-74
2024/04/19 02:34:26;;;;;;;11.88;8.88;;;;;;;4.56;86.85;100583.09;2672627;26;20689;-74
2024/04/19 02:35:39;;;;;;;12.60;11.05;;;;;;;4.55;86.87;100571.88;2672323;26;20639;-74
2024/04/19 02:36:52;;;;;;;10.77;9.15;;;;;;;4.57;87.11;100571.91;2671264;26;20513;-74
2024/04/19 02:38:06;;;;;;;11.13;9.18;;;;;;;4.58;86.83;100581.41;2672188;27;20503;-74
2024/04/19 02:39:19;;;;;;;11.00;9.77;;;;;;;4.58;86.93;100573.63;2672908;26;20277;-74
2024/04/19 02:40:32;;;;;;;10.90;9.63;;;;;;;4.61;86.82;100575.41;2671216;26;20001;-74
2024/04/19 02:41:45;;;;;;;11.27;9.63;;;;;;;4.61;86.77;100577.97;2643563;27;19999;-74
2024/04/19 02:42:58;;;;;;;12.90;11.60;;;;;;;4.63;86.74;100577.16;2649725;27;20068;-74
2024/04/19 02:44:12;;;;;;;12.13;10.60;;;;;;;4.64;86.56;100578.88;2660223;26;19997;-73
2024/04/19 02:45:25;;;;;;;12.10;9.77;;;;;;;4.63;86.93;100565.97;2672307;27;19998;-74
2024/04/19 02:46:39;;;;;;;12.10;10.07;;;;;;;4.66;86.56;100569.44;2673019;26;19997;-74
2024/04/19 02:47:52;;;;;;;10.45;9.15;;;;;;;4.66;86.98;100561.69;2671516;26;20479;-74
2024/04/19 02:49:06;;;;;;;15.35;11.55;;;;;;;4.68;86.52;100559.13;2659754;27;20001;-74
2024/04/19 02:50:19;;;;;;;10.77;8.63;;;;;;;4.69;86.76;100556.56;2660391;27;20016;-74
2024/04/19 02:51:32;;;;;;;14.73;10.05;;;;;;;4.69;86.67;100553.97;2677976;26;20005;-74
2024/04/19 02:52:45;;;;;;;18.30;11.90;;;;;;;4.71;86.82;100556.59;2671379;26;19997;-74
2024/04/19 02:53:59;;;;;;;11.48;8.93;;;;;;;4.73;86.33;100552.31;2660404;27;20012;-74
2024/04/19 02:55:12;;;;;;;15.07;11.38;;;;;;;4.74;86.52;100549.72;2654808;27;20046;-74
2024/04/19 02:56:25;;;;;;;14.88;9.68;;;;;;;4.76;86.48;100555.81;2666859;26;20007;-74
2024/04/19 02:57:38;;;;;;;11.07;9.85;;;;;;;4.76;86.12;100553.22;2672463;26;20002;-74
2024/04/19 02:58:52;;;;;;;13.52;11.02;;;;;;;4.78;86.59;100548.94;2688891;26;19996;-74
2024/04/19 03:00:06;;;;;;;10.75;8.52;;;;;;;4.78;86.37;100543.75;2671357;26;20005;-74
2024/04/19 03:01:19;;;;;;;12.50;10.13;;;;;;;4.79;85.98;100547.22;2672387;27;20012;-74
2024/04/19 03:02:32;;;;;;;14.50;8.80;;;;;;;4.79;86.19;100542.91;2671456;27;20008;-74
2024/04/19 03:03:46;;;;;;;10.15;8.20;;;;;;;4.81;86.01;100545.53;2672115;27;20002;-74
2024/04/19 03:04:59;;;;;;;9.88;8.85;;;;;;;4.82;86.07;100542.94;2672293;26;20437;-74
2024/04/19 03:06:12;;;;;;;11.43;9.68;;;;;;;4.84;85.78;100539.53;2672020;27;20506;-74
2024/04/19 03:07:25;;;;;;;12.18;9.00;;;;;;;4.85;85.82;100543.84;2672233;27;19993;-74
2024/04/19 03:08:40;;;;;;;13.73;9.75;;;;;;;4.86;85.81;100545.59;2670766;26;20001;-74
2024/04/19 03:09:53;;;;;;;12.43;8.32;;;;;;;4.86;86.02;100537.84;2672292;27;19997;-74
2024/04/19 03:11:06;;;;;;;10.10;9.07;;;;;;;4.87;85.94;100534.38;2672776;26;20015;-74
2024/04/19 03:12:20;;;;;;;11.15;9.20;;;;;;;4.88;85.55;100542.19;2670959;26;20005;-74
2024/04/19 03:13:33;;;;;;;10.63;8.00;;;;;;;4.88;85.60;100530.94;2659925;27;20001;-74
2024/04/19 03:14:46;;;;;;;11.65;9.13;;;;;;;4.89;85.72;100528.38;2659912;27;20001;-74
2024/04/19 03:16:09;;;;;;;10.35;9.35;;;;;;;4.91;85.73;100529.28;2671055;26;20394;-74
2024/04/19 03:17:22;;;;;;;11.32;9.00;;;;;;;4.92;85.21;100527.56;2671420;27;20729;-74
2024/04/19 03:18:35;;;;;;;13.27;9.57;;;;;;;4.93;85.34;100531.88;2660067;27;20015;-74
2024/04/19 03:19:48;;;;;;;10.23;9.25;;;;;;;4.92;85.78;100528.41;2671352;27;20402;-74
2024/04/19 03:21:02;;;;;;;12.43;9.43;;;;;;;4.93;85.68;100529.28;2672214;26;20022;-74
2024/04/19 03:22:18;;;;;;;10.48;9.20;;;;;;;4.94;85.26;100523.28;2672234;27;20020;-74
2024/04/19 03:23:31;;;;;;;9.68;8.38;;;;;;;4.94;85.16;100525.88;2672013;26;20016;-74
2024/04/19 03:24:44;;;;;;;14.15;10.60;;;;;;;4.95;85.61;100523.28;2670464;26;20056;-74
2024/04/19 03:25:58;;;;;;;13.98;12.57;;;;;;;4.96;85.29;100525.03;2677486;26;20001;-74
2024/04/19 03:27:11;;;;;;;11.25;9.88;;;;;;;4.94;85.30;100515.53;2671629;27;20002;-74
2024/04/19 03:28:25;;;;;;;10.80;9.70;;;;;;;4.94;85.20;100518.09;2658968;26;20001;-74
2024/04/19 03:29:38;;;;;;;13.52;10.45;;;;;;;4.94;84.71;100518.09;2681418;26;20451;-74
2024/04/19 03:30:51;;;;;;;12.05;10.25;;;;;;;4.94;85.17;100521.56;2672903;26;20017;-74
2024/04/19 03:32:05;;;;;;;11.77;9.40;;;;;;;4.94;84.79;100511.22;2670834;26;20010;-74
2024/04/19 03:33:18;;;;;;;14.52;9.50;;;;;;;4.94;85.04;100502.59;2676870;26;20000;-74
2024/04/19 03:34:31;;;;;;;10.30;7.78;;;;;;;4.95;84.83;100506.91;2671781;27;20021;-74
2024/04/19 03:35:45;;;;;;;11.27;8.27;;;;;;;4.95;84.76;100517.25;2671667;27;20010;-74
2024/04/19 03:36:58;;;;;;;10.77;9.20;;;;;;;4.94;84.58;100505.19;2671404;26;19997;-74
2024/04/19 03:38:14;;;;;;;11.73;9.55;;;;;;;4.95;84.63;100517.25;2643464;27;20002;-74
2024/04/19 03:39:27;;;;;;;10.55;9.43;;;;;;;4.95;84.53;100509.47;2650048;27;20024;-74
2024/04/19 03:40:41;;;;;;;14.70;8.95;;;;;;;4.95;84.70;100505.16;2670400;26;20006;-74
2024/04/19 03:41:56;;;;;;;10.18;9.18;;;;;;;4.96;84.63;100503.47;2672397;26;20002;-74
2024/04/19 03:43:10;;;;;;;12.50;8.90;;;;;;;4.97;84.80;100505.19;2671644;27;20009;-74
2024/04/19 03:45:55;;;;;;;8.27;7.38;;;;;;;4.95;84.47;100501.72;2672474;27;20341;-74
2024/04/19 03:47:09;;;;;;;15.35;10.18;;;;;;;4.96;84.01;100503.47;2654284;27;20013;-73
2024/04/19 03:48:22;;;;;;;11.45;9.90;;;;;;;4.94;84.46;100495.69;2648720;27;20005;-74
2024/04/19 03:49:35;;;;;;;11.70;9.63;;;;;;;4.95;84.16;100497.41;2670584;27;20015;-74
2024/04/19 03:50:48;;;;;;;9.38;8.43;;;;;;;4.96;84.45;100488.81;2671470;27;20008;-74
2024/04/19 03:52:02;;;;;;;12.23;10.23;;;;;;;4.97;84.46;100497.44;2670559;26;20001;-74
2024/04/19 03:53:15;;;;;;;12.05;8.73;;;;;;;4.95;84.45;100484.47;2671593;27;20049;-74
2024/04/19 03:54:28;;;;;;;13.82;10.00;;;;;;;4.97;84.63;100484.50;2671566;27;20075;-74
2024/04/19 03:55:42;;;;;;;12.52;9.43;;;;;;;4.96;84.36;100487.97;2671514;27;20394;-74
2024/04/19 03:56:55;;;;;;;11.48;10.32;;;;;;;4.98;84.55;100486.25;2659787;26;20002;-74
2024/04/19 03:58:09;;;;;;;11.82;9.57;;;;;;;4.98;84.30;100483.66;2660397;27;20044;-74
2024/04/19 03:59:22;;;;;;;12.50;10.57;;;;;;;4.98;84.30;100476.78;2665267;27;20080;-74
2024/04/19 04:00:38;;;;;;;12.30;10.82;;;;;;;4.98;83.83;100476.78;2671175;26;20394;-74
2024/04/19 04:01:51;;;;;;;14.00;9.82;;;;;;;4.98;84.53;100475.91;2671460;26;20012;-74
2024/04/19 04:03:05;;;;;;;12.50;10.30;;;;;;;4.99;83.91;100481.09;2660503;27;20008;-74
2024/04/19 04:04:18;;;;;;;11.05;9.95;;;;;;;4.97;84.15;100469.00;2658897;26;20012;-75
2024/04/19 04:05:33;;;;;;;12.18;10.35;;;;;;;4.98;84.16;100475.91;2671779;27;20001;-74
2024/04/19 04:06:46;;;;;;;11.65;10.45;;;;;;;4.97;84.26;100466.41;2670856;27;20461;-74
2024/04/19 04:08:00;;;;;;;9.77;8.70;;;;;;;4.96;83.82;100459.53;2671397;26;20008;-74
2024/04/19 04:09:13;;;;;;;16.58;8.98;;;;;;;4.95;83.98;100461.22;2671089;27;20006;-74
2024/04/19 04:10:26;;;;;;;11.75;10.43;;;;;;;4.95;83.58;100463.78;2660332;27;20005;-75
2024/04/19 04:11:39;;;;;;;20.30;10.60;;;;;;;4.94;84.02;100462.06;2677116;26;20000;-74
2024/04/19 04:12:52;;;;;;;13.20;10.45;;;;;;;4.94;83.72;100453.44;2671141;26;20012;-74
2024/04/19 04:14:06;;;;;;;14.52;9.95;;;;;;;4.94;83.61;100458.63;2671831;27;19997;-74
2024/04/19 04:15:19;;;;;;;10.68;8.70;;;;;;;4.93;83.19;100456.88;2672041;26;20005;-74
2024/04/19 04:16:32;;;;;;;13.70;9.48;;;;;;;4.92;83.42;100453.41;2671150;26;20009;-74
2024/04/19 04:17:45;;;;;;;11.65;9.23;;;;;;;4.91;83.34;100449.13;2671957;26;19998;-74
2024/04/19 04:18:59;;;;;;;10.40;9.38;;;;;;;4.91;83.31;100451.69;2671133;27;20013;-74
2024/04/19 04:20:12;;;;;;;10.75;9.52;;;;;;;4.92;83.32;100453.41;2671274;26;20399;-74
2024/04/19 04:21:25;;;;;;;13.77;11.38;;;;;;;4.92;83.14;100449.97;2671402;26;20867;-74
2024/04/19 04:22:38;;;;;;;11.15;9.73;;;;;;;4.92;83.37;100457.72;2659950;27;20517;-74
2024/04/19 04:23:51;;;;;;;14.13;10.00;;;;;;;4.93;83.54;100462.03;2670517;27;20473;-74
2024/04/19 04:25:05;;;;;;;13.13;10.45;;;;;;;4.94;83.10;100462.06;2670985;26;19993;-74
2024/04/19 04:26:18;;;;;;;10.65;9.43;;;;;;;4.95;83.42;100461.22;2671712;27;19994;-74
2024/04/19 04:27:31;;;;;;;15.25;10.73;;;;;;;4.96;83.08;100459.53;2671453;27;20005;-74
2024/04/19 04:28:44;;;;;;;12.63;8.90;;;;;;;4.97;82.87;100462.09;2658517;26;20063;-74
2024/04/19 04:29:58;;;;;;;10.77;9.68;;;;;;;4.97;83.39;100454.34;2671550;27;20357;-74
2024/04/19 04:31:11;;;;;;;12.98;8.82;;;;;;;4.96;83.21;100447.44;2671469;27;20012;-74
2024/04/19 04:32:24;;;;;;;12.02;10.65;;;;;;;4.97;83.12;100449.16;2659455;26;20694;-74
2024/04/19 04:33:37;;;;;;;14.88;10.43;;;;;;;4.98;83.15;100457.78;2671492;27;20453;-73
2024/04/19 04:34:51;;;;;;;13.25;10.95;;;;;;;4.99;83.07;100457.81;2670834;27;20454;-74
2024/04/19 04:36:04;;;;;;;14.07;11.23;;;;;;;5.00;83.21;100461.28;2671061;26;20405;-74
2024/04/19 04:37:18;;;;;;;12.57;10.82;;;;;;;5.01;82.94;100460.44;2672163;26;20076;-74
2024/04/19 04:38:31;;;;;;;12.55;10.40;;;;;;;5.01;82.92;100463.88;2670638;27;20081;-74
2024/04/19 04:39:44;;;;;;;16.17;11.15;;;;;;;5.02;83.31;100460.44;2671575;27;20439;-74
2024/04/19 04:40:57;;;;;;;10.48;8.40;;;;;;;5.03;83.20;100458.72;2671882;26;19997;-74
2024/04/19 04:42:11;;;;;;;10.50;9.40;;;;;;;5.06;83.21;100465.63;2671542;27;20082;-74
2024/04/19 04:43:24;;;;;;;13.93;10.93;;;;;;;5.07;82.96;100463.06;2659080;27;20073;-74
2024/04/19 04:44:37;;;;;;;12.57;9.95;;;;;;;5.08;82.79;100467.38;2658978;26;20012;-74
2024/04/19 04:45:51;;;;;;;10.70;9.60;;;;;;;5.09;82.76;100468.28;2671437;27;20001;-74
2024/04/19 04:47:05;;;;;;;14.52;9.27;;;;;;;5.09;83.19;100465.69;2672136;26;20466;-74
2024/04/19 04:48:18;;;;;;;10.85;9.73;;;;;;;5.09;83.34;100463.97;2671957;26;20002;-74
2024/04/19 04:49:32;;;;;;;13.05;11.15;;;;;;;5.09;83.15;100474.31;2671272;27;20354;-74
2024/04/19 04:50:45;;;;;;;12.98;10.27;;;;;;;5.10;82.77;100470.88;2671592;27;20439;-74
2024/04/19 04:51:58;;;;;;;16.00;12.05;;;;;;;5.09;83.12;100479.50;2671803;26;20096;-74
2024/04/19 04:53:11;;;;;;;12.65;10.55;;;;;;;5.09;83.20;100474.31;2672174;26;20019;-74
2024/04/19 04:54:25;;;;;;;12.23;10.15;;;;;;;5.09;82.86;100476.91;2671237;27;20024;-74
2024/04/19 04:55:38;;;;;;;12.98;11.32;;;;;;;5.09;83.25;100473.44;2660282;27;20055;-74
2024/04/19 04:56:51;;;;;;;14.65;10.60;;;;;;;5.09;83.21;100473.44;2671147;26;20082;-74
2024/04/19 04:58:05;;;;;;;14.98;11.40;;;;;;;5.09;83.03;100473.44;2671075;27;20026;-74
2024/04/19 04:59:18;;;;;;;13.77;11.50;;;;;;;5.07;83.40;100468.25;2671105;27;19998;-74
2024/04/19 05:00:31;;;;;;;12.27;10.90;;;;;;;5.07;83.11;100463.06;2671353;26;20012;-74
2024/04/19 05:01:44;;;;;;;13.35;11.52;;;;;;;5.06;83.02;100466.53;2670216;26;20071;-74
2024/04/19 05:02:58;;;;;;;15.10;10.85;;;;;;;5.04;83.19;100463.06;2659637;27;20019;-74
2024/04/19 05:04:11;;;;;;;13.98;12.57;;;;;;;5.03;83.12;100458.72;2659912;26;20012;-74
2024/04/19 05:05:25;;;;;;;10.77;9.57;;;;;;;5.00;83.11;100450.91;2659882;27;20012;-74
2024/04/19 05:06:38;;;;;;;13.43;11.82;;;;;;;5.00;83.19;100450.91;2660226;27;20001;-74
2024/04/19 05:07:51;;;;;;;14.20;12.70;;;;;;;5.00;83.75;100456.94;2659739;27;20001;-74
2024/04/19 05:09:05;;;;;;;12.73;10.85;;;;;;;5.01;83.63;100455.25;2659071;26;20037;-74
2024/04/19 05:10:19;;;;;;;16.30;11.70;;;;;;;5.00;83.29;100453.50;2677035;26;19997;-74
2024/04/19 05:11:33;;;;;;;13.32;11.57;;;;;;;4.99;83.61;100449.19;2682437;26;20521;-74
2024/04/19 05:12:46;;;;;;;16.30;13.35;;;;;;;5.00;83.58;100449.19;2671886;26;20002;-74
2024/04/19 05:13:59;;;;;;;13.70;11.90;;;;;;;4.99;83.66;100444.03;2671732;26;20013;-74
2024/04/19 05:15:12;;;;;;;17.52;11.90;;;;;;;5.00;83.64;100453.50;2670943;27;20072;-74
2024/04/19 05:16:25;;;;;;;12.07;10.55;;;;;;;5.02;83.82;100454.41;2670667;26;20009;-74
2024/04/19 05:17:39;;;;;;;15.07;11.25;;;;;;;5.02;83.76;100455.25;2670801;27;19998;-74
2024/04/19 05:18:52;;;;;;;13.00;10.93;;;;;;;5.05;84.04;100450.97;2659355;27;20002;-74
2024/04/19 05:20:06;;;;;;;14.57;11.00;;;;;;;5.06;83.46;100453.59;2659160;26;19998;-74
2024/04/19 05:21:19;;;;;;;12.07;10.82;;;;;;;5.09;83.45;100452.75;2670950;27;20001;-74
2024/04/19 05:22:35;;;;;;;13.80;10.40;;;;;;;5.10;83.81;100444.13;2670519;26;20017;-74
2024/04/19 05:23:48;;;;;;;12.18;10.02;;;;;;;5.10;83.51;100444.13;2670717;26;19997;-74
2024/04/19 05:25:02;;;;;;;13.20;10.13;;;;;;;5.09;83.58;100440.69;2693397;21;20028;-71
2024/04/19 05:26:15;;;;;;;13.50;11.30;;;;;;;5.10;83.40;100442.41;2706111;26;20012;-72
2024/04/19 05:27:28;;;;;;;13.63;10.90;;;;;;;5.13;83.76;100436.41;2704969;26;20012;-72
2024/04/19 05:28:41;;;;;;;11.70;10.50;;;;;;;5.13;83.77;100428.63;2704088;26;20407;-72
2024/04/19 05:29:55;;;;;;;13.10;11.00;;;;;;;5.13;83.82;100424.31;2704978;26;20379;-72
2024/04/19 05:31:08;;;;;;;13.65;10.77;;;;;;;5.14;83.92;100431.25;2693383;26;20314;-73
2024/04/19 05:32:21;;;;;;;13.20;11.73;;;;;;;5.15;83.56;100426.94;2709193;26;20044;-72
2024/04/19 05:33:35;;;;;;;12.32;10.65;;;;;;;5.16;83.61;100426.06;2704685;26;20004;-72
2024/04/19 05:34:48;;;;;;;14.35;10.48;;;;;;;5.18;83.59;100437.31;2705241;26;20089;-72
2024/04/19 05:36:01;;;;;;;16.13;12.48;;;;;;;5.15;84.06;100426.94;2705939;26;20019;-72
2024/04/19 05:37:14;;;;;;;16.73;11.45;;;;;;;5.18;83.91;100437.31;2705947;26;20011;-72
2024/04/19 05:38:28;;;;;;;13.15;11.48;;;;;;;5.21;83.96;100439.94;2705464;26;20000;-72
2024/04/19 05:39:41;;;;;;;19.20;11.93;;;;;;;5.23;83.46;100436.50;2708047;26;20783;-72
2024/04/19 05:40:54;;;;;;;13.30;11.90;;;;;;;5.25;83.89;100426.19;2706972;26;20156;-72
2024/04/19 05:42:08;;;;;;;12.55;11.30;;;;;;;5.27;83.77;100433.94;2706855;26;20016;-73
2024/04/19 05:43:21;;;;;;;14.57;11.35;;;;;;;5.28;83.61;100430.50;2706110;26;20019;-72
2024/04/19 05:44:34;;;;;;;14.48;11.35;;;;;;;5.29;83.64;100440.84;2705479;26;20344;-72
2024/04/19 05:45:48;;;;;;;13.02;11.82;;;;;;;5.29;83.64;100432.25;2704603;26;20441;-72
2024/04/19 05:47:01;;;;;;;11.75;10.18;;;;;;;5.30;83.44;100434.00;2705667;26;20056;-72